Time;durP1;ratioP1;P1;durP2;ratioP2;P2;SDS_P1;SDS_P2;PMS_P1;PMS_P2;Temp;Humidity;BMP_temperature;BMP_pressure;BME280_temperature;BME280_humidity;BME280_pressure;Samples;Min_cycle;Max_cycle;Signal;HPM_P1;HPM_P2
2021/11/21 00:01:52;;;;;;;23.15;14.40;;;;;;;5.88;70.05;100362.91;4363239;32;32567;-86
2021/11/21 00:04:22;;;;;;;22.30;13.43;;;;;;;5.80;70.72;100359.47;4374922;32;33109;-87
2021/11/21 00:06:51;;;;;;;22.73;13.35;;;;;;;6.31;68.66;100354.19;4362788;32;33747;-87
2021/11/21 00:09:20;;;;;;;21.73;12.85;;;;;;;6.29;68.37;100349.03;4362480;32;33299;-86
2021/11/21 00:11:49;;;;;;;20.37;13.05;;;;;;;6.45;67.15;100352.44;4362767;32;32704;-87
2021/11/21 00:14:17;;;;;;;22.98;13.30;;;;;;;6.89;65.72;100352.19;4350829;32;32703;-87
2021/11/21 00:16:46;;;;;;;22.15;13.30;;;;;;;6.43;67.08;100353.28;4375777;32;32678;-87
2021/11/21 00:19:14;;;;;;;22.98;14.20;;;;;;;6.63;66.35;100359.22;4375067;32;32777;-87
2021/11/21 00:21:42;;;;;;;26.60;14.45;;;;;;;6.85;65.91;100352.22;4375271;32;33144;-87
2021/11/21 00:24:10;;;;;;;26.17;14.30;;;;;;;7.17;64.66;100347.69;4367498;32;32756;-87
2021/11/21 00:26:39;;;;;;;20.95;11.88;;;;;;;7.11;65.50;100350.31;4369436;32;32499;-86
2021/11/21 00:29:07;;;;;;;21.67;12.63;;;;;;;7.28;64.60;100340.69;4379474;32;32800;-86
2021/11/21 00:31:35;;;;;;;18.75;10.85;;;;;;;7.16;65.24;100348.56;4375581;32;33914;-86
2021/11/21 00:34:03;;;;;;;19.77;11.80;;;;;;;7.04;66.50;100339.16;4362858;32;33574;-87
2021/11/21 00:36:31;;;;;;;19.10;11.40;;;;;;;7.10;66.88;100340.81;4363452;32;33149;-88
2021/11/21 00:39:00;;;;;;;18.37;11.45;;;;;;;7.08;66.62;100334.81;4350469;32;32835;-87
2021/11/21 00:41:33;;;;;;;15.75;10.45;;;;;;;7.02;67.13;100336.56;4362591;32;34139;-87
2021/11/21 00:44:02;;;;;;;18.25;11.02;;;;;;;7.28;66.15;100337.25;4350741;32;33481;-87
2021/11/21 00:46:34;;;;;;;17.70;10.70;;;;;;;7.42;65.52;100339.72;4362660;32;33636;-87
2021/11/21 00:49:07;;;;;;;17.00;11.05;;;;;;;7.14;65.92;100335.63;4350505;32;33030;-87
2021/11/21 00:51:36;;;;;;;18.35;11.23;;;;;;;7.14;66.22;100334.75;4350747;32;32969;-87
2021/11/21 00:54:21;;;;;;;18.37;11.70;;;;;;;7.08;66.56;100327.88;4362567;32;33603;-87
2021/11/21 00:56:50;;;;;;;22.85;12.32;;;;;;;7.14;65.66;100334.75;4362617;32;32691;-87
2021/11/21 00:59:21;;;;;;;18.85;11.65;;;;;;;7.27;65.68;100330.34;4350250;32;32689;-87
2021/11/21 01:01:51;;;;;;;16.85;11.02;;;;;;;7.30;66.00;100326.00;4362478;32;33459;-88
2021/11/21 01:04:20;;;;;;;18.83;10.82;;;;;;;7.25;65.98;100319.16;4350110;32;33109;-87
2021/11/21 01:06:52;;;;;;;17.27;10.95;;;;;;;7.45;65.04;100326.75;4350344;32;32607;-87
2021/11/21 01:09:24;;;;;;;16.98;10.10;;;;;;;7.26;63.43;100315.66;4362279;32;32728;-87
2021/11/21 01:11:57;;;;;;;19.27;11.10;;;;;;;7.43;62.98;100312.94;4362392;32;33857;-85
2021/11/21 01:14:26;;;;;;;18.12;10.00;;;;;;;7.39;62.51;100314.69;4350543;32;32758;-87
2021/11/21 01:16:56;;;;;;;15.02;9.63;;;;;;;7.25;62.38;100317.41;4363744;32;32352;-87
2021/11/21 01:19:25;;;;;;;18.67;10.77;;;;;;;7.16;62.35;100312.28;4391686;32;34157;-87
2021/11/21 01:21:53;;;;;;;18.27;10.98;;;;;;;7.11;62.33;100308.88;4392053;32;33025;-86
2021/11/21 01:24:21;;;;;;;15.52;9.75;;;;;;;6.78;63.25;100303.94;4378914;32;33010;-87
2021/11/21 01:26:49;;;;;;;17.12;9.68;;;;;;;7.07;62.08;100304.59;4379600;32;33319;-87
2021/11/21 01:29:17;;;;;;;19.08;11.70;;;;;;;6.76;63.20;100303.06;4391620;32;33949;-87
2021/11/21 01:31:47;;;;;;;15.50;9.43;;;;;;;6.74;63.69;100303.94;4391676;32;33091;-87
2021/11/21 01:34:16;;;;;;;16.80;9.85;;;;;;;6.64;64.06;100296.22;4391279;32;32700;-86
2021/11/21 01:36:45;;;;;;;18.85;10.70;;;;;;;6.58;64.00;100298.88;4379292;32;33199;-87
2021/11/21 01:39:14;;;;;;;16.23;9.88;;;;;;;6.51;63.10;100290.28;4379129;32;33961;-86
2021/11/21 01:41:43;;;;;;;16.80;10.18;;;;;;;6.48;63.44;100286.84;4367320;32;33085;-87
2021/11/21 01:44:12;;;;;;;18.12;11.27;;;;;;;6.51;63.62;100289.41;4392730;32;33241;-87
2021/11/21 01:46:43;;;;;;;;;;;;;;;6.75;63.09;100288.37;4397947;32;32790;-87
2021/11/21 01:49:11;;;;;;;18.15;9.80;;;;;;;6.72;63.20;100279.78;4397492;32;33114;-87
2021/11/21 01:51:40;;;;;;;17.45;9.93;;;;;;;6.45;63.95;100284.28;4380031;32;32802;-87
2021/11/21 01:54:09;;;;;;;18.65;10.15;;;;;;;6.23;64.70;100274.00;4403897;32;32637;-87
2021/11/21 01:56:39;;;;;;;19.15;10.27;;;;;;;6.26;64.89;100271.41;4391580;32;33677;-87
2021/11/21 01:59:08;;;;;;;16.95;9.93;;;;;;;6.64;63.29;100277.25;4390943;32;32878;-87
2021/11/21 02:01:37;;;;;;;16.05;10.43;;;;;;;6.33;64.11;100272.25;4378584;32;33214;-87
2021/11/21 02:04:06;;;;;;;15.60;9.75;;;;;;;6.39;63.89;100269.59;4378783;32;34193;-86
2021/11/21 02:06:35;;;;;;;16.12;9.27;;;;;;;6.37;63.70;100266.19;4378802;32;32596;-87
2021/11/21 02:09:04;;;;;;;18.08;9.80;;;;;;;6.54;63.09;100265.22;4403676;32;32792;-87
2021/11/21 02:11:33;;;;;;;18.75;9.27;;;;;;;6.65;62.43;100264.28;4378923;32;33457;-87
2021/11/21 02:14:03;;;;;;;14.57;9.40;;;;;;;6.65;62.22;100253.94;4366580;32;32829;-87
2021/11/21 02:16:35;;;;;;;14.10;9.18;;;;;;;6.81;61.80;100252.09;4366714;32;32614;-86
2021/11/21 02:19:03;;;;;;;15.85;8.82;;;;;;;6.48;62.92;100250.59;4378795;32;33741;-87
2021/11/21 02:21:31;;;;;;;17.52;9.80;;;;;;;6.61;62.22;100244.47;4391456;32;33845;-87
2021/11/21 02:24:01;;;;;;;15.63;10.15;;;;;;;6.91;61.21;100234.75;4379445;32;33057;-87
2021/11/21 02:26:29;;;;;;;17.62;9.63;;;;;;;6.86;61.49;100226.16;4390634;32;33281;-87
2021/11/21 02:28:57;;;;;;;15.93;9.35;;;;;;;6.38;62.92;100225.62;4378532;32;32897;-87
2021/11/21 02:31:29;;;;;;;17.08;9.15;;;;;;;6.44;62.22;100234.22;4391073;32;32651;-87
2021/11/21 02:33:57;;;;;;;15.57;9.13;;;;;;;6.50;61.66;100230.72;4391060;32;32334;-86
2021/11/21 02:36:27;;;;;;;16.50;9.40;;;;;;;6.44;61.76;100226.44;4378757;32;33421;-87
2021/11/21 02:38:56;;;;;;;17.15;9.88;;;;;;;6.32;62.01;100227.37;4378681;32;32685;-87
2021/11/21 02:41:24;;;;;;;16.85;9.45;;;;;;;5.97;62.78;100222.34;4391038;32;33098;-87
2021/11/21 02:43:53;;;;;;;15.60;9.52;;;;;;;5.82;63.11;100223.25;4391576;32;32744;-87
2021/11/21 02:46:23;;;;;;;15.40;9.10;;;;;;;5.82;63.02;100218.09;4391511;32;32472;-87
2021/11/21 02:48:53;;;;;;;16.10;9.48;;;;;;;5.69;63.50;100212.12;4391496;32;33106;-87
2021/11/21 02:51:22;;;;;;;18.33;10.57;;;;;;;5.64;63.72;100209.53;4378474;32;33275;-86
2021/11/21 02:53:50;;;;;;;18.10;10.25;;;;;;;5.99;62.71;100205.12;4378921;32;33637;-86
2021/11/21 02:56:19;;;;;;;16.48;9.40;;;;;;;6.10;62.46;100205.06;4391391;32;32669;-87
2021/11/21 02:58:48;;;;;;;14.98;9.30;;;;;;;5.92;61.58;100201.69;4366365;32;33768;-87
2021/11/21 03:01:24;;;;;;;16.98;9.55;;;;;;;5.83;61.70;100202.56;4378728;32;32937;-87
2021/11/21 03:03:54;;;;;;;14.63;9.23;;;;;;;6.05;61.26;100193.88;4378481;32;34108;-87
2021/11/21 03:06:23;;;;;;;17.08;9.18;;;;;;;5.60;62.34;100191.47;4372857;32;32343;-87
2021/11/21 03:08:51;;;;;;;15.25;9.15;;;;;;;5.47;62.27;100201.84;4373016;32;32718;-87
2021/11/21 03:11:20;;;;;;;17.15;10.05;;;;;;;5.80;61.37;100196.56;4373312;32;33996;-87
2021/11/21 03:13:49;;;;;;;15.25;9.68;;;;;;;5.65;61.45;100194.88;4385676;32;32624;-86
2021/11/21 03:16:19;;;;;;;17.15;9.57;;;;;;;5.76;61.27;100187.97;4379644;32;32379;-87
2021/11/21 03:18:49;;;;;;;14.87;9.05;;;;;;;5.62;61.50;100193.16;4374701;32;32701;-87
2021/11/21 03:21:22;;;;;;;15.48;9.38;;;;;;;5.89;60.24;100182.72;4375998;32;34828;-87
2021/11/21 03:23:52;;;;;;;16.60;10.13;;;;;;;5.51;61.55;100187.19;4363290;32;33735;-86
2021/11/21 03:26:21;;;;;;;16.73;9.32;;;;;;;5.91;60.31;100186.19;4363059;32;34018;-86
2021/11/21 03:28:49;;;;;;;16.33;9.77;;;;;;;5.64;61.17;100180.25;4375786;32;34151;-87
2021/11/21 03:31:19;;;;;;;16.80;9.35;;;;;;;5.53;61.26;100182.84;4363246;32;33009;-87
2021/11/21 03:33:48;;;;;;;16.87;10.00;;;;;;;5.25;62.59;100188.12;4357829;32;32842;-86
2021/11/21 03:36:16;;;;;;;16.73;9.50;;;;;;;5.27;62.96;100178.63;4391033;32;32594;-87
2021/11/21 03:38:45;;;;;;;17.25;10.20;;;;;;;4.92;61.69;100176.97;4390494;32;32847;-87
2021/11/21 03:41:15;;;;;;;15.82;8.75;;;;;;;4.65;62.34;100175.25;4378246;32;33281;-86
2021/11/21 03:43:44;;;;;;;17.85;10.10;;;;;;;4.92;61.11;100169.22;4390311;32;33112;-87
2021/11/21 03:46:14;;;;;;;16.50;9.70;;;;;;;4.67;61.87;100164.06;4378176;32;32785;-87
2021/11/21 03:48:45;;;;;;;15.88;9.93;;;;;;;4.24;63.27;100161.47;4390345;32;33025;-86
2021/11/21 03:51:15;;;;;;;19.05;9.43;;;;;;;4.29;63.33;100159.72;4378269;32;32976;-87
2021/11/21 03:53:44;;;;;;;15.05;8.43;;;;;;;4.59;62.28;100157.19;4390716;32;33883;-87
2021/11/21 03:56:13;;;;;;;14.40;8.95;;;;;;;4.80;61.17;100164.03;4390878;32;32401;-87
2021/11/21 03:58:41;;;;;;;15.27;9.00;;;;;;;4.42;62.03;100155.44;4378387;32;32651;-87
2021/11/21 04:01:10;;;;;;;17.83;9.30;;;;;;;4.16;62.86;100151.12;4390614;32;33142;-87
2021/11/21 04:03:42;;;;;;;15.18;9.27;;;;;;;4.38;62.62;100139.97;4391097;32;32863;-87
2021/11/21 04:06:10;;;;;;;16.08;9.25;;;;;;;4.55;61.96;100142.53;4378321;32;32721;-87
2021/11/21 04:08:42;;;;;;;16.27;8.35;;;;;;;4.14;62.93;100131.34;4366164;32;32802;-87
2021/11/21 04:11:10;;;;;;;14.32;8.15;;;;;;;4.25;62.56;100134.78;4378394;32;33034;-87
2021/11/21 04:13:38;;;;;;;14.87;7.93;;;;;;;4.37;62.12;100131.34;4366163;32;32982;-87
2021/11/21 04:16:08;;;;;;;15.15;9.10;;;;;;;4.53;62.07;100131.38;4390470;32;32471;-87
2021/11/21 04:18:36;;;;;;;16.15;9.00;;;;;;;4.45;62.58;100132.22;4378063;32;34029;-87
2021/11/21 04:21:04;;;;;;;14.43;8.75;;;;;;;4.31;63.34;100128.78;4390934;32;32642;-87
2021/11/21 04:23:33;;;;;;;15.98;9.20;;;;;;;4.42;62.60;100127.06;4390406;32;32761;-87
2021/11/21 04:26:02;;;;;;;14.10;8.60;;;;;;;4.14;63.51;100132.19;4390650;32;32302;-87
2021/11/21 04:28:30;;;;;;;19.02;10.25;;;;;;;3.99;63.67;100127.03;4396053;32;33061;-87
2021/11/21 04:30:59;;;;;;;17.92;10.85;;;;;;;3.96;63.68;100125.31;4396435;32;32940;-86
2021/11/21 04:33:27;;;;;;;18.90;11.23;;;;;;;4.43;62.49;100125.37;4378864;32;32796;-87
2021/11/21 04:35:55;;;;;;;18.92;10.65;;;;;;;4.40;62.64;100123.62;4390452;32;32695;-87
2021/11/21 04:38:24;;;;;;;16.80;9.52;;;;;;;4.42;62.41;100129.63;4390415;32;33006;-87
2021/11/21 04:40:54;;;;;;;13.75;8.15;;;;;;;4.17;63.27;100129.63;4377793;32;33161;-87
2021/11/21 04:43:22;;;;;;;15.30;8.18;;;;;;;4.06;63.44;100118.44;4377761;32;32548;-86
2021/11/21 04:45:53;;;;;;;16.60;8.93;;;;;;;4.09;63.20;100117.56;4377839;32;32280;-87
2021/11/21 04:48:23;;;;;;;17.97;9.10;;;;;;;4.20;62.52;100121.00;4390865;32;32981;-87
2021/11/21 04:50:52;;;;;;;15.98;9.07;;;;;;;4.29;61.96;100115.03;4389984;32;33176;-86
2021/11/21 04:53:21;;;;;;;15.18;8.98;;;;;;;4.09;62.29;100113.25;4377653;32;32421;-86
2021/11/21 04:55:51;;;;;;;16.15;9.27;;;;;;;3.93;62.82;100108.94;4365558;32;33156;-87
2021/11/21 04:58:18;;;;;;;15.23;7.97;;;;;;;3.92;62.72;100105.53;4390355;32;32740;-87
2021/11/21 05:00:46;;;;;;;13.93;7.90;;;;;;;4.04;62.53;100102.09;4377746;32;33264;-87
2021/11/21 05:03:20;;;;;;;16.08;8.18;;;;;;;4.16;62.09;100096.97;4377576;32;32714;-86
2021/11/21 05:05:49;;;;;;;16.98;8.85;;;;;;;4.07;62.04;100101.22;4390241;32;32574;-87
2021/11/21 05:08:18;;;;;;;16.02;9.30;;;;;;;4.03;62.06;100089.19;4389809;32;32847;-86
2021/11/21 05:10:46;;;;;;;13.93;8.65;;;;;;;3.79;62.68;100091.75;4377714;32;32826;-86
2021/11/21 05:13:14;;;;;;;16.75;8.40;;;;;;;3.56;63.35;100086.50;4389717;32;33118;-87
2021/11/21 05:15:43;;;;;;;13.20;7.70;;;;;;;3.65;63.39;100088.25;4365615;32;32387;-86
2021/11/21 05:18:12;;;;;;;13.10;8.13;;;;;;;3.84;62.29;100078.84;4371150;32;32825;-87
2021/11/21 05:20:42;;;;;;;15.73;8.07;;;;;;;3.80;62.23;100084.84;4362696;32;33319;-87
2021/11/21 05:23:11;;;;;;;15.85;7.95;;;;;;;3.84;61.95;100079.72;4375080;32;33596;-86
2021/11/21 05:25:45;;;;;;;14.10;8.10;;;;;;;4.05;61.63;100079.75;4374258;32;32775;-87
2021/11/21 05:28:15;;;;;;;12.50;7.32;;;;;;;3.95;61.38;100084.00;4386058;32;33900;-87
2021/11/21 05:30:47;;;;;;;14.20;8.00;;;;;;;4.04;61.08;100076.28;4373900;32;32855;-87
2021/11/21 05:33:16;;;;;;;13.55;7.30;;;;;;;3.80;62.19;100074.53;4389518;32;33668;-88
2021/11/21 05:35:45;;;;;;;14.50;7.95;;;;;;;3.81;62.32;100063.38;4352965;32;32230;-86
2021/11/21 05:38:13;;;;;;;16.17;8.05;;;;;;;3.98;61.87;100064.25;4377691;32;33671;-87
2021/11/21 05:40:43;;;;;;;13.50;8.50;;;;;;;3.91;62.47;100062.56;4377277;32;33772;-87
2021/11/21 05:43:11;;;;;;;17.15;7.95;;;;;;;3.97;62.15;100070.28;4389900;32;32891;-87
2021/11/21 05:45:44;;;;;;;15.45;8.52;;;;;;;3.70;62.76;100063.38;4381967;32;32374;-87
2021/11/21 05:48:12;;;;;;;15.80;8.25;;;;;;;3.95;62.12;100064.28;4396831;32;32904;-87
2021/11/21 05:50:40;;;;;;;14.98;7.95;;;;;;;3.70;62.71;100063.38;4380210;32;33911;-88
2021/11/21 05:53:09;;;;;;;12.93;7.43;;;;;;;3.72;62.61;100063.38;4365239;32;34175;-87
2021/11/21 05:55:37;;;;;;;17.20;8.98;;;;;;;3.60;62.43;100061.63;4389525;32;33438;-86
2021/11/21 05:58:05;;;;;;;14.35;8.18;;;;;;;3.63;62.74;100059.91;4389358;32;32882;-87
2021/11/21 06:00:35;;;;;;;15.18;8.52;;;;;;;3.70;62.89;100059.91;4364788;32;34115;-86
2021/11/21 06:03:05;;;;;;;16.80;8.55;;;;;;;3.74;62.92;100065.09;4378171;32;33036;-86
2021/11/21 06:05:33;;;;;;;16.60;9.43;;;;;;;3.49;63.86;100069.31;4379072;32;32374;-87
2021/11/21 06:08:06;;;;;;;19.15;10.43;;;;;;;3.73;63.06;100076.25;4391169;32;32878;-87
2021/11/21 06:10:36;;;;;;;18.80;9.70;;;;;;;3.59;64.12;100072.78;4379327;32;32858;-87
2021/11/21 06:13:05;;;;;;;19.77;10.30;;;;;;;3.81;63.76;100068.53;4379585;32;33079;-87
2021/11/21 06:15:33;;;;;;;21.48;11.10;;;;;;;3.91;64.07;100072.88;4379016;32;32237;-87
2021/11/21 06:18:04;;;;;;;21.58;10.82;;;;;;;3.73;65.44;100072.81;4366845;32;33592;-87
2021/11/21 06:20:33;;;;;;;21.50;10.75;;;;;;;3.60;66.62;100066.78;4367347;32;33783;-87
2021/11/21 06:23:03;;;;;;;21.75;10.32;;;;;;;4.22;64.73;100067.72;4391864;32;32791;-87
2021/11/21 06:25:31;;;;;;;22.00;10.98;;;;;;;4.27;64.60;100071.16;4378907;32;32375;-87
2021/11/21 06:28:01;;;;;;;21.20;10.98;;;;;;;4.46;64.29;100066.00;4391930;32;34405;-87
2021/11/21 06:30:30;;;;;;;19.45;10.18;;;;;;;4.09;65.28;100068.59;4379212;32;32856;-87
2021/11/21 06:32:59;;;;;;;19.52;10.98;;;;;;;4.12;65.42;100068.56;4366790;32;32729;-87
2021/11/21 06:35:27;;;;;;;25.48;11.68;;;;;;;4.42;64.32;100070.31;4366799;32;32293;-87
2021/11/21 06:37:55;;;;;;;34.10;12.02;;;;;;;4.43;64.83;100063.44;4391711;32;32908;-87
2021/11/21 06:40:24;;;;;;;33.25;12.65;;;;;;;4.29;65.80;100074.59;4378942;32;32991;-87
2021/11/21 06:42:56;;;;;;;30.73;13.02;;;;;;;4.31;66.45;100072.88;4391565;32;32756;-87
2021/11/21 06:45:24;;;;;;;30.20;11.52;;;;;;;4.16;67.49;100068.59;4390564;32;34198;-86
2021/11/21 06:47:52;;;;;;;34.33;11.52;;;;;;;4.44;67.11;100066.00;4391492;32;32536;-87
2021/11/21 06:50:23;;;;;;;39.22;12.95;;;;;;;4.16;68.65;100058.28;4390687;32;32931;-87
2021/11/21 06:52:51;;;;;;;55.28;14.05;;;;;;;4.16;69.19;100059.97;4391533;32;32965;-86
2021/11/21 06:55:20;;;;;;;54.83;12.52;;;;;;;4.40;68.97;100060.84;4390956;32;32511;-87
2021/11/21 06:57:49;;;;;;;57.92;14.50;;;;;;;4.32;70.07;100066.00;4378879;32;33162;-87
2021/11/21 07:00:17;;;;;;;74.07;13.48;;;;;;;4.57;69.85;100061.69;4378808;32;33873;-87
2021/11/21 07:02:45;;;;;;;71.32;14.05;;;;;;;4.50;70.49;100058.25;4378907;32;32939;-87
2021/11/21 07:05:19;;;;;;;64.50;13.95;;;;;;;4.61;70.42;100065.97;4397131;32;32470;-87
2021/11/21 07:07:48;;;;;;;48.75;13.75;;;;;;;4.57;71.11;100061.69;4397658;32;33115;-86
2021/11/21 07:10:16;;;;;;;48.95;13.07;;;;;;;4.75;70.78;100065.97;4393555;32;34083;-87
2021/11/21 07:12:45;;;;;;;60.95;12.88;;;;;;;4.93;70.46;100054.75;4390937;32;32876;-87
2021/11/21 07:15:15;;;;;;;85.55;14.50;;;;;;;4.80;71.30;100060.78;4390882;32;32515;-87
2021/11/21 07:17:44;;;;;;;86.32;12.95;;;;;;;4.43;71.97;100066.03;4391461;32;33873;-88
2021/11/21 07:20:16;;;;;;;54.13;12.90;;;;;;;4.80;70.76;100065.94;4391104;32;33430;-86
2021/11/21 07:22:51;;;;;;;52.38;12.75;;;;;;;5.18;69.62;100057.22;4391559;32;32944;-88
2021/11/21 07:25:22;;;;;;;64.30;12.95;;;;;;;4.58;71.44;100060.81;4378570;32;33265;-86
2021/11/21 07:27:51;;;;;;;65.53;13.48;;;;;;;4.76;70.99;100065.09;4390947;32;33156;-86
2021/11/21 07:30:24;;;;;;;57.90;12.52;;;;;;;4.92;70.73;100050.44;4369760;32;34440;-86
2021/11/21 07:32:53;;;;;;;37.67;13.15;;;;;;;4.82;70.80;100056.47;4375775;32;32874;-87
2021/11/21 07:35:23;;;;;;;45.78;11.80;;;;;;;4.75;70.61;100050.47;4375625;32;32859;-87
2021/11/21 07:37:51;;;;;;;30.90;12.35;;;;;;;5.12;70.26;100047.78;4375764;32;32661;-87
2021/11/21 07:40:19;;;;;;;37.85;11.85;;;;;;;5.16;70.57;100046.06;4375520;32;33338;-86
2021/11/21 07:42:55;;;;;;;40.53;11.45;;;;;;;4.94;70.51;100045.25;4364723;32;32614;-86
2021/11/21 07:45:24;;;;;;;31.10;10.75;;;;;;;4.70;70.56;100044.47;4376122;32;33389;-85
2021/11/21 07:47:52;;;;;;;36.22;11.90;;;;;;;4.91;70.19;100045.28;4363769;32;33498;-86
2021/11/21 07:50:21;;;;;;;19.60;10.02;;;;;;;4.68;69.44;100051.38;4363787;32;33067;-86
2021/11/21 07:52:49;;;;;;;19.60;10.32;;;;;;;4.93;69.28;100047.00;4351126;32;32988;-87
2021/11/21 07:55:18;;;;;;;18.52;10.20;;;;;;;5.03;68.93;100037.50;4376204;32;32675;-87
2021/11/21 07:57:46;;;;;;;31.40;11.45;;;;;;;4.93;69.20;100036.69;4363549;32;33148;-87
2021/11/21 08:00:15;;;;;;;20.88;10.73;;;;;;;4.99;68.90;100038.38;4363297;32;33907;-87
2021/11/21 08:02:43;;;;;;;20.25;10.32;;;;;;;5.34;67.79;100034.78;4363441;32;33304;-87
2021/11/21 08:05:12;;;;;;;22.02;10.27;;;;;;;5.32;67.80;100031.34;4376000;32;33629;-87
2021/11/21 08:07:41;;;;;;;20.00;11.57;;;;;;;4.99;68.62;100030.63;4351165;32;33248;-87
2021/11/21 08:10:11;;;;;;;28.92;11.18;;;;;;;5.23;68.11;100015.91;4363343;32;33833;-87
2021/11/21 08:12:40;;;;;;;22.92;10.60;;;;;;;5.33;67.64;100027.88;4363041;32;32727;-86
2021/11/21 08:15:11;;;;;;;22.85;10.85;;;;;;;5.40;67.62;100026.13;4363240;32;33213;-87
2021/11/21 08:17:40;;;;;;;19.98;11.12;;;;;;;5.15;68.47;100021.94;4376118;32;32837;-87
2021/11/21 08:20:09;;;;;;;22.67;11.82;;;;;;;5.31;68.25;100025.31;4351384;32;32603;-87
2021/11/21 08:22:39;;;;;;;25.48;11.80;;;;;;;4.88;69.68;100016.87;4363160;32;33593;-87
2021/11/21 08:25:09;;;;;;;22.45;12.48;;;;;;;5.00;69.73;100028.03;4374705;32;33462;-87
2021/11/21 08:27:39;;;;;;;22.13;11.88;;;;;;;5.12;69.82;100021.09;4357394;32;32980;-86
2021/11/21 08:30:08;;;;;;;19.25;11.40;;;;;;;5.24;69.47;100013.31;4363819;32;33232;-87
2021/11/21 08:32:37;;;;;;;19.60;11.45;;;;;;;5.41;68.57;100012.34;4363263;32;32569;-85
2021/11/21 08:35:07;;;;;;;17.62;10.35;;;;;;;5.76;67.81;100019.03;4363252;32;32446;-88
2021/11/21 08:37:36;;;;;;;18.05;11.65;;;;;;;5.88;67.69;100012.91;4366162;32;32989;-87
2021/11/21 08:40:05;;;;;;;23.30;11.75;;;;;;;6.16;66.42;100014.44;4387790;32;33307;-87
2021/11/21 08:42:34;;;;;;;22.48;13.25;;;;;;;6.12;66.73;100002.41;4360525;32;488770;-86
2021/11/21 08:45:03;;;;;;;19.95;11.85;;;;;;;5.91;67.72;100008.56;4374567;32;32760;-84
2021/11/21 08:47:32;;;;;;;22.35;13.00;;;;;;;6.33;66.57;99993.59;4375288;32;33931;-84
2021/11/21 08:50:06;;;;;;;23.42;13.88;;;;;;;6.28;67.22;99992.78;4351580;32;33045;-87
2021/11/21 08:52:33;;;;;;;;;;;;;;;6.52;67.01;99986.50;4375925;32;32835;-85
2021/11/21 08:55:04;;;;;;;22.80;12.37;;;;;;;6.73;66.21;99994.03;4387175;32;33752;-85
2021/11/21 08:57:32;;;;;;;20.48;12.50;;;;;;;6.95;66.01;99992.94;4374272;32;33057;-85
2021/11/21 09:00:05;;;;;;;20.67;12.20;;;;;;;6.88;66.47;99988.69;4349912;32;33680;-86
2021/11/21 09:02:34;;;;;;;21.20;12.88;;;;;;;6.38;68.64;99985.78;4362642;32;33494;-85
2021/11/21 09:05:06;;;;;;;21.40;12.73;;;;;;;6.76;67.83;99975.91;4362356;32;32324;-86
2021/11/21 09:07:40;;;;;;;23.08;13.05;;;;;;;6.76;68.14;99973.31;4362392;32;33418;-85
2021/11/21 09:10:14;;;;;;;25.15;14.30;;;;;;;6.81;68.35;99977.56;4374580;32;33088;-86
2021/11/21 09:12:43;;;;;;;23.70;14.13;;;;;;;6.91;68.34;99973.09;4374182;32;33710;-85
2021/11/21 09:15:14;;;;;;;19.52;12.75;;;;;;;6.62;69.88;99984.69;4361962;32;32067;-85
2021/11/21 09:17:45;;;;;;;21.85;13.18;;;;;;;6.65;69.49;99963.09;4361962;32;33406;-85
2021/11/21 09:20:14;;;;;;;21.65;14.07;;;;;;;6.61;69.54;99972.59;4362210;32;34739;-84
2021/11/21 09:22:43;;;;;;;23.02;14.25;;;;;;;7.15;68.14;99968.50;4362183;32;33587;-85
2021/11/21 09:25:11;;;;;;;23.50;14.90;;;;;;;7.27;68.07;99963.16;4362208;32;33412;-86
2021/11/21 09:27:40;;;;;;;23.65;14.82;;;;;;;7.66;67.02;99963.44;4361395;32;33154;-86
2021/11/21 09:30:10;;;;;;;22.42;13.27;;;;;;;7.41;67.54;99962.13;4361841;32;32461;-85
2021/11/21 09:32:39;;;;;;;21.30;14.13;;;;;;;7.79;66.22;99958.06;4361309;32;33418;-85
2021/11/21 09:35:09;;;;;;;22.75;13.85;;;;;;;7.75;66.78;99965.06;4359352;32;33545;-85
2021/11/21 09:37:39;;;;;;;21.87;14.38;;;;;;;7.49;68.03;99973.22;4372637;32;34234;-85
2021/11/21 09:40:09;;;;;;;23.12;15.10;;;;;;;7.60;67.83;99960.94;4373471;32;33053;-86
2021/11/21 09:42:42;;;;;;;26.02;16.02;;;;;;;7.89;67.37;99962.22;4378643;32;33472;-85
2021/11/21 09:45:12;;;;;;;28.55;17.50;;;;;;;7.37;69.14;99953.53;4373064;32;33468;-85
2021/11/21 09:47:48;;;;;;;29.02;17.62;;;;;;;7.63;69.32;99957.44;4371644;32;32822;-85
2021/11/21 09:50:17;;;;;;;27.25;16.65;;;;;;;7.74;69.31;99946.91;4373656;32;33120;-85
2021/11/21 09:52:50;;;;;;;31.67;18.95;;;;;;;7.73;69.42;99938.28;4387534;32;32681;-85
2021/11/21 09:55:18;;;;;;;31.87;18.52;;;;;;;8.02;68.70;99930.00;4393468;32;32082;-85
2021/11/21 09:57:49;;;;;;;28.70;18.80;;;;;;;8.07;68.97;99932.53;4378612;32;33637;-85
2021/11/21 10:00:18;;;;;;;31.62;18.77;;;;;;;7.98;69.99;99925.75;4388224;32;33138;-85
2021/11/21 10:02:50;;;;;;;28.48;17.92;;;;;;;8.40;69.13;99919.78;4375270;32;33684;-85
2021/11/21 10:05:27;;;;;;;30.50;19.40;;;;;;;9.12;67.20;99914.03;4375079;32;32270;-85
2021/11/21 10:08:15;;;;;;;35.17;19.08;;;;;;;8.62;67.95;99911.63;4375040;32;32902;-86
2021/11/21 10:10:46;;;;;;;30.12;18.80;;;;;;;9.07;67.01;99906.34;4375517;32;34371;-86
2021/11/21 10:13:34;;;;;;;33.25;18.20;;;;;;;9.14;67.28;99902.72;4375628;32;33702;-86
2021/11/21 10:16:19;;;;;;;32.90;20.58;;;;;;;9.59;65.55;99891.28;4375728;32;32275;-86
2021/11/21 10:18:57;;;;;;;29.35;17.55;;;;;;;10.12;63.73;99884.75;4375360;32;33668;-86
2021/11/21 10:21:27;;;;;;;28.02;18.00;;;;;;;9.96;63.50;99885.16;4375567;32;33223;-86
2021/11/21 10:24:20;;;;;;;26.98;17.77;;;;;;;9.85;64.12;99890.62;4375302;32;33069;-86
2021/11/21 10:27:04;;;;;;;26.10;17.80;;;;;;;10.43;62.42;99876.97;4375616;32;32523;-86
2021/11/21 10:29:35;;;;;;;27.35;17.67;;;;;;;10.68;61.96;99876.28;4363090;32;33433;-85
2021/11/21 10:32:20;;;;;;;27.40;17.55;;;;;;;10.85;60.91;99873.19;4387877;32;34480;-86
2021/11/21 10:34:55;;;;;;;28.92;18.90;;;;;;;11.20;59.73;99877.28;4378051;32;32411;-85
2021/11/21 10:37:28;;;;;;;25.98;17.77;;;;;;;11.33;59.87;99869.94;4390815;32;32630;-85
2021/11/21 10:40:07;;;;;;;29.30;18.33;;;;;;;11.50;58.92;99866.78;4388723;32;34734;-85
2021/11/21 10:42:37;;;;;;;28.75;18.33;;;;;;;10.62;60.70;99868.62;4387950;32;32964;-87
2021/11/21 10:45:06;;;;;;;26.55;17.40;;;;;;;10.34;61.41;99858.97;4375039;32;32729;-87
2021/11/21 10:47:42;;;;;;;;;;;;;;;10.23;62.12;99856.66;4363253;32;33256;-85
2021/11/21 10:50:12;;;;;;;26.33;15.63;;;;;;;10.36;61.65;99860.66;4375042;32;33992;-87
2021/11/21 10:52:46;;;;;;;28.75;16.65;;;;;;;10.16;62.00;99855.97;4363317;32;32964;-87
2021/11/21 10:55:16;;;;;;;28.55;17.00;;;;;;;10.14;62.12;99852.53;4375644;32;32681;-87
2021/11/21 10:57:49;;;;;;;25.50;15.73;;;;;;;10.20;62.81;99844.56;4362908;32;32673;-88
2021/11/21 11:00:23;;;;;;;25.10;16.75;;;;;;;10.80;60.73;99828.16;4363203;32;32883;-87
2021/11/21 11:02:53;;;;;;;26.52;16.33;;;;;;;11.17;59.61;99827.00;4374942;32;33594;-87
2021/11/21 11:05:23;;;;;;;25.45;17.00;;;;;;;11.59;58.21;99820.41;4362794;32;32773;-87
2021/11/21 11:07:53;;;;;;;27.48;16.37;;;;;;;11.11;59.68;99819.38;4375334;32;33534;-87
2021/11/21 11:10:27;;;;;;;24.05;15.98;;;;;;;11.70;57.88;99813.91;4362657;32;32646;-87
2021/11/21 11:13:05;;;;;;;25.77;15.13;;;;;;;11.33;58.84;99811.72;4362592;32;33946;-86
2021/11/21 11:15:39;;;;;;;21.70;15.35;;;;;;;12.10;56.90;99801.25;4374669;32;32815;-87
2021/11/21 11:18:09;;;;;;;22.37;14.25;;;;;;;12.41;55.45;99801.88;4362799;32;32293;-87
2021/11/21 11:20:44;;;;;;;20.85;14.07;;;;;;;13.00;53.62;99798.72;4375365;32;32818;-87
2021/11/21 11:23:14;;;;;;;20.45;13.85;;;;;;;12.85;53.66;99791.47;4362783;32;32839;-87
2021/11/21 11:25:44;;;;;;;22.48;14.20;;;;;;;12.27;55.25;99795.41;4363724;32;32800;-87
2021/11/21 11:28:33;;;;;;;22.23;14.48;;;;;;;12.55;55.16;99786.53;4362926;32;33657;-87
2021/11/21 11:31:22;;;;;;;18.55;13.52;;;;;;;12.95;53.97;99781.50;4365209;32;33070;-87
2021/11/21 11:33:51;;;;;;;23.35;15.35;;;;;;;13.12;53.00;99772.97;4377430;32;32945;-87
2021/11/21 11:36:22;;;;;;;27.02;16.00;;;;;;;12.84;54.08;99771.47;4402555;32;32700;-87